Houston, Texas
Current Conditions -  °F | °C
As of 3:35 PM on Saturday 20 Dec 2014 (Local Time) from KMCJ Reporting Station
Overcast Overcast  
Wind Chill: 12°   Ceiling: 1000
Heat Index: 12°   Visibility: NA
Dew Point:   Wind: 8mph
Humidity: 82%   Direction: 340°NNW
Pressure: 30.11"   Gusts: NA
Location:  29.76°N, 95.37°W
Report Text: KMCJ 202135Z AUTO 34007KT BKN010 OVC014 12/09 A3011 RMK AO1
Loading
Personal Weather Stations






























Interactive Weather Map New forecast layout! Learn more

10-Day Weather Forecast

Advertisements
Track Severe Weather on mobile